Surface Preassure
0:00 UTC
12:00 UTC (Click for larger versions)
Andrewsfield Outlook

Current time:


  04:21:04am (GMT)      04:21:04am (UTC)


Headline: Cloud clearing to sunny spells. Showers spreading in overnight.

Today: A cloudy start with the odd spot of light rain and drizzle, primarily across western hills, where it will be rather murky. Gradually becoming drier and brighter from the west through the morning. Feeling slightly milder than recent days. Maximum Temperature 7C.

Tonight: Patchy cloud increasing overnight as scattered showers spread in from the west, turning heavier and more frequent. Showers possibly falling as snow across the higher parts of the Pennines later, Minimum Temperature 1C.

Saturday: Rather cloudy and chilly, with showers or longer spells of rain, heavy at times and wintry on hills. Winds becoming strong through the day, with coastal gales possible later. Maximum Temperature 5C.

Outlook for Sunday to Tuesday: Chilly Sunday with strong winds and outbreaks of rain, sleet and hill snow gradually easing. Bands of rain and strong winds tracking eastwards Monday and Tuesday, preceded by some snow.

Nearby METAR/TAF

Stansted (EGSS)


Current conditions: VFR

METAR: EGSS 030350Z AUTO 21011KT 9999 -SN FEW040 01/M01 Q1009 RESG

TAF: TAF EGSS 022300Z 0300/0406 25008KT 9999 SCT025 BECMG 0303/0306 19010KT BKN010 TEMPO 0303/0305 7000 RA BKN006 PROB30 TEMPO 0303/0305 4000 RASN BECMG 0305/0308 6000 -RADZ BKN006 TEMPO 0305/0317 2000 RADZ BKN004 PROB40 TEMPO 0309/0315 0300 FG DZ BKN001 BECMG 0312/0315 VRB03KT BECMG 0316/0319 9999 NSW SCT010 TEMPO 0319/0403 3000 BR -DZ BKN004 PROB30 TEMPO 0321/0404 0300 FG BKN001 BECMG 0403/0406 25010KT

Southend (EGMC)


Current conditions: MVFR

METAR: EGMC 030350Z 23007KT 9999 SCT014 BKN024 03/M01 Q1010

TAF: TAF EGMC 030159Z 0303/0312 24006KT 9999 SCT030 PROB30 TEMPO 0303/0306 8000 -RASN BECMG 0304/0307 BKN012 BECMG 0306/0309 6000 -RADZ TEMPO 0306/0312 2000 RADZ PROB40 TEMPO 0306/0309 1400 BR DZ BKN003

RAF Wattisham (EGUW)


Current conditions: VFR

METAR: EGUW 030350Z AUTO 25011KT 9999 OVC050/// 01/M01 Q1008 RERA

TAF: